Time;durP1;ratioP1;P1;durP2;ratioP2;P2;SDS_P1;SDS_P2;PMS_P1;PMS_P2;Temp;Humidity;BMP_temperature;BMP_pressure;BME280_temperature;BME280_humidity;BME280_pressure;Samples;Min_cycle;Max_cycle;Signal;HPM_P1;HPM_P2
2024/03/19 00:00:22;;;;;;;21.40;11.90;;;;;;;1.95;90.81;99347.15;274032;1271;22462;-92
2024/03/19 00:07:38;;;;;;;23.90;13.60;;;;;;;1.95;90.94;99345.19;273725;1275;22384;-92
2024/03/19 00:14:36;;;;;;;29.00;16.00;;;;;;;1.92;91.21;99343.33;273752;1276;22260;-93
2024/03/19 00:21:47;;;;;;;29.90;16.30;;;;;;;1.87;91.50;99346.85;273662;1270;22256;-92
2024/03/19 00:28:50;;;;;;;32.20;16.20;;;;;;;1.84;91.71;99342.61;273847;1269;22242;-92
2024/03/19 00:34:52;;;;;;;27.60;14.50;;;;;;;1.84;92.08;99342.90;271870;1269;23019;-93
2024/03/19 00:41:36;;;;;;;28.30;14.90;;;;;;;1.85;92.39;99341.41;269847;1260;5356929;-92
2024/03/19 00:48:22;;;;;;;23.30;12.80;;;;;;;1.85;92.58;99342.59;274061;1272;22253;-92
2024/03/19 00:55:49;;;;;;;23.10;13.00;;;;;;;1.89;92.91;99337.45;273252;1269;22259;-92
2024/03/19 01:01:58;;;;;;;22.10;12.80;;;;;;;1.93;92.82;99337.80;274077;1264;22309;-91
2024/03/19 01:08:42;;;;;;;22.70;14.00;;;;;;;1.95;92.97;99337.30;273606;1273;22547;-93
2024/03/19 01:14:44;;;;;;;33.40;16.40;;;;;;;1.93;92.75;99341.65;270620;1269;23855;-91
2024/03/19 01:20:46;;;;;;;39.70;16.80;;;;;;;1.83;91.85;99344.77;270592;1269;25275;-92
2024/03/19 01:27:11;;;;;;;22.20;13.20;;;;;;;1.79;92.50;99344.52;272972;1269;22455;-92
2024/03/19 01:33:54;;;;;;;23.50;13.50;;;;;;;1.81;92.70;99345.23;274035;1269;22213;-94
2024/03/19 01:40:51;;;;;;;23.40;13.60;;;;;;;1.82;93.12;99346.23;272815;1264;23344;-92
2024/03/19 01:46:53;;;;;;;26.80;14.60;;;;;;;1.84;93.23;99344.77;273441;1270;22451;-92
2024/03/19 01:53:18;;;;;;;29.70;13.40;;;;;;;1.84;93.19;99345.11;273859;1275;22284;-92
2024/03/19 02:00:00;;;;;;;26.00;14.30;;;;;;;1.83;93.57;99344.39;273833;1272;23502;-92
2024/03/19 02:06:46;;;;;;;24.80;13.80;;;;;;;1.81;93.51;99342.33;272611;1269;22566;-93
2024/03/19 02:13:19;;;;;;;24.90;14.70;;;;;;;1.80;93.60;99341.80;271286;1257;22547;-92
2024/03/19 02:20:22;;;;;;;30.30;16.70;;;;;;;1.81;93.89;99343.31;272140;1269;22250;-92
2024/03/19 02:27:13;;;;;;;27.30;15.10;;;;;;;1.77;94.09;99343.08;271555;1270;22335;-91
2024/03/19 02:33:16;;;;;;;31.10;16.50;;;;;;;1.72;94.23;99342.77;271611;1267;112126;-92
2024/03/19 02:39:28;;;;;;;36.20;16.80;;;;;;;1.66;94.25;99346.91;271200;1269;23230;-91
2024/03/19 02:45:30;;;;;;;29.30;16.20;;;;;;;1.60;94.46;99352.66;272777;1268;23459;-90
2024/03/19 02:51:35;;;;;;;32.80;16.30;;;;;;;1.56;94.65;99354.16;271052;1269;23246;-90
2024/03/19 02:57:37;;;;;;;34.40;17.10;;;;;;;1.54;94.92;99354.64;272147;1269;23719;-91
2024/03/19 03:03:41;;;;;;;30.70;16.40;;;;;;;1.55;95.08;99366.20;271656;1269;24681;-91
2024/03/19 03:09:45;;;;;;;27.90;14.80;;;;;;;1.53;95.27;99369.25;272688;1264;22598;-90
2024/03/19 03:15:49;;;;;;;29.10;16.30;;;;;;;1.53;95.46;99371.75;272534;1269;23405;-92
2024/03/19 03:21:54;;;;;;;31.90;15.80;;;;;;;1.54;95.70;99375.38;272773;1269;23328;-92
2024/03/19 03:27:57;;;;;;;31.20;17.00;;;;;;;1.55;95.91;99375.45;271655;1269;22437;-91
2024/03/19 03:33:59;;;;;;;37.40;17.80;;;;;;;1.57;96.05;99380.86;272213;1269;22743;-91
2024/03/19 03:40:13;;;;;;;34.90;17.90;;;;;;;1.57;96.00;99387.11;271805;1269;23138;-90
2024/03/19 03:46:17;;;;;;;34.30;17.10;;;;;;;1.55;96.19;99391.26;272888;1269;22278;-91
2024/03/19 03:52:21;;;;;;;35.80;18.40;;;;;;;1.56;96.55;99394.86;272707;1269;23136;-91
2024/03/19 03:58:23;;;;;;;34.90;18.00;;;;;;;1.55;96.63;99398.35;271661;1269;22424;-90
2024/03/19 04:04:29;;;;;;;37.00;19.50;;;;;;;1.52;96.54;99400.02;271665;1269;24400;-90
2024/03/19 04:10:38;;;;;;;38.60;20.80;;;;;;;1.52;96.68;99404.95;272438;1269;23686;-91
2024/03/19 04:16:40;;;;;;;37.30;20.30;;;;;;;1.56;96.82;99412.13;272834;1269;23382;-91
2024/03/19 04:22:50;;;;;;;41.70;19.20;;;;;;;1.56;96.83;99418.19;272995;1269;22431;-90
2024/03/19 04:28:56;;;;;;;36.20;18.70;;;;;;;1.52;96.82;99420.44;273029;1269;22321;-91
2024/03/19 04:35:00;;;;;;;41.50;20.20;;;;;;;1.49;96.98;99420.19;270748;1269;22614;-91
2024/03/19 04:41:05;;;;;;;41.20;19.70;;;;;;;1.47;97.02;99422.10;272575;1269;23095;-91
2024/03/19 04:47:16;;;;;;;41.00;20.30;;;;;;;1.45;97.29;99429.23;272263;1269;22406;-90
2024/03/19 04:53:27;;;;;;;45.70;21.10;;;;;;;1.42;97.53;99433.98;272291;1259;22478;-90
2024/03/19 04:59:34;;;;;;;48.10;24.20;;;;;;;1.38;97.81;99446.98;270957;1269;22576;-91
2024/03/19 05:05:36;;;;;;;48.80;22.10;;;;;;;1.38;97.94;99453.92;272500;1269;23820;-90
2024/03/19 05:11:39;;;;;;;47.20;21.90;;;;;;;1.41;98.22;99456.72;271986;1269;22573;-90
2024/03/19 05:17:41;;;;;;;39.20;21.40;;;;;;;1.42;98.22;99460.81;271551;1269;22565;-90
2024/03/19 05:23:47;;;;;;;48.30;23.10;;;;;;;1.44;98.46;99461.46;272511;1259;22285;-90
2024/03/19 05:29:52;;;;;;;46.10;21.40;;;;;;;1.48;98.79;99467.25;272371;1269;22349;-91
2024/03/19 05:35:55;;;;;;;44.20;22.00;;;;;;;1.54;99.14;99471.48;272198;1261;22556;-91
2024/03/19 05:42:01;;;;;;;42.60;21.40;;;;;;;1.63;99.18;99477.64;271105;1259;22494;-90
2024/03/19 05:48:03;;;;;;;52.30;23.90;;;;;;;1.73;99.16;99483.78;272837;1269;23564;-92
2024/03/19 05:54:06;;;;;;;45.70;22.90;;;;;;;1.83;99.23;99486.95;272731;1269;22451;-90
2024/03/19 06:00:13;;;;;;;46.70;24.10;;;;;;;1.92;99.31;99496.46;272572;1269;23559;-90
2024/03/19 06:06:18;;;;;;;50.80;24.90;;;;;;;2.03;99.15;99499.70;272208;1269;22388;-89
2024/03/19 06:12:22;;;;;;;51.70;24.10;;;;;;;2.10;99.09;99505.38;273264;1269;22256;-91
2024/03/19 06:18:24;;;;;;;53.70;25.50;;;;;;;2.14;99.25;99506.46;272613;1269;23135;-90
2024/03/19 06:24:27;;;;;;;54.60;26.80;;;;;;;2.20;99.12;99506.85;272552;1269;22356;-90
2024/03/19 06:30:37;;;;;;;51.20;25.90;;;;;;;2.24;99.20;99508.01;272117;1266;23563;-91
2024/03/19 06:36:41;;;;;;;48.90;25.30;;;;;;;2.30;99.21;99511.16;273037;1270;22250;-91
2024/03/19 06:42:44;;;;;;;37.70;21.20;;;;;;;2.35;98.99;99511.63;270910;1269;24286;-93
2024/03/19 06:48:46;;;;;;;35.90;20.10;;;;;;;2.35;98.25;99516.30;272027;1269;22538;-91
2024/03/19 06:54:56;;;;;;;43.70;20.70;;;;;;;2.38;98.28;99523.38;272050;1269;23349;-92
2024/03/19 07:01:09;;;;;;;36.10;20.00;;;;;;;2.35;97.51;99532.89;272640;1269;22412;-91
2024/03/19 07:07:16;;;;;;;29.20;17.80;;;;;;;2.43;97.44;99538.92;272719;1269;22422;-91
2024/03/19 07:13:25;;;;;;;25.50;15.50;;;;;;;2.56;97.14;99545.66;272958;1269;23619;-91
2024/03/19 07:19:27;;;;;;;26.30;14.00;;;;;;;2.59;96.41;99552.29;272659;1269;22509;-91
2024/03/19 07:25:34;;;;;;;29.30;14.80;;;;;;;2.63;96.33;99552.95;272349;1269;23802;-91
2024/03/19 07:31:42;;;;;;;22.90;13.70;;;;;;;2.61;95.85;99557.85;270602;1269;22398;-91
2024/03/19 07:38:13;;;;;;;23.60;13.60;;;;;;;2.61;95.76;99564.35;271672;1269;22553;-91
2024/03/19 07:44:30;;;;;;;24.30;12.70;;;;;;;3.31;96.85;99569.81;271312;1269;24031;-90
2024/03/19 07:50:34;;;;;;;19.10;11.40;;;;;;;4.16;95.87;99571.06;270002;1269;22566;-90
2024/03/19 07:56:40;;;;;;;23.20;12.40;;;;;;;4.95;94.21;99578.36;271159;1269;22416;-91
2024/03/19 08:02:43;;;;;;;19.60;10.90;;;;;;;5.23;90.50;99586.98;271663;1269;23167;-91
2024/03/19 08:08:45;;;;;;;16.40;9.70;;;;;;;4.63;89.29;99590.84;272606;1269;22523;-92
2024/03/19 08:14:51;;;;;;;14.00;9.10;;;;;;;4.04;89.73;99590.06;272679;1269;22403;-91
2024/03/19 08:20:53;;;;;;;12.80;8.10;;;;;;;3.96;90.09;99595.16;272636;1269;22407;-93
2024/03/19 08:26:55;;;;;;;14.40;9.00;;;;;;;4.65;90.23;99592.61;271017;1269;22513;-90
2024/03/19 08:33:06;;;;;;;13.90;8.70;;;;;;;5.57;88.97;99593.27;271225;1269;23154;-88
2024/03/19 08:39:16;;;;;;;13.10;8.20;;;;;;;6.34;87.78;99590.67;270726;1269;26613;-90
2024/03/19 08:45:23;;;;;;;13.20;8.70;;;;;;;6.92;85.62;99588.06;272046;1269;23871;-93
2024/03/19 08:51:30;;;;;;;11.70;7.60;;;;;;;7.47;83.57;99585.47;272829;1269;23049;-91
2024/03/19 08:57:37;;;;;;;9.40;6.70;;;;;;;8.07;82.32;99584.35;271173;1269;22533;-90
2024/03/19 09:03:42;;;;;;;13.60;6.70;;;;;;;7.98;80.31;99585.40;271075;1269;22556;-90
2024/03/19 09:09:48;;;;;;;8.80;5.80;;;;;;;7.90;79.28;99589.43;270396;1269;22549;-92
2024/03/19 09:15:52;;;;;;;10.20;6.20;;;;;;;8.49;78.62;99592.07;272030;1269;23494;-92
2024/03/19 09:21:56;;;;;;;10.50;6.60;;;;;;;8.21;77.23;99597.21;272807;1269;23717;-92
2024/03/19 09:27:58;;;;;;;15.10;6.90;;;;;;;7.05;73.51;99603.64;272796;1269;22364;-90
2024/03/19 09:34:00;;;;;;;10.40;6.40;;;;;;;6.59;72.86;99604.11;272893;1260;23638;-91
2024/03/19 09:40:05;;;;;;;7.90;4.80;;;;;;;7.60;72.27;99597.54;273017;1269;22417;-91
2024/03/19 09:46:10;;;;;;;5.60;4.50;;;;;;;8.82;71.82;99595.45;272795;1269;22360;-92
2024/03/19 09:52:16;;;;;;;6.10;4.30;;;;;;;9.50;71.38;99597.30;272796;1269;24103;-92
2024/03/19 09:58:23;;;;;;;6.80;4.70;;;;;;;9.44;69.71;99591.75;272832;1269;23072;-91
2024/03/19 10:04:27;;;;;;;5.20;3.90;;;;;;;9.92;68.79;99590.41;272483;1269;22230;-91
2024/03/19 10:10:33;;;;;;;8.60;4.60;;;;;;;9.43;64.03;99591.73;272571;1269;23057;-90
2024/03/19 10:17:02;;;;;;;7.30;4.70;;;;;;;8.36;64.03;99601.16;271350;1269;23317;-90
2024/03/19 10:24:32;;;;;;;;;;;;;;;;;;;;;
2024/03/19 10:31:12;;;;;;;5.50;3.90;;;;;;;9.45;65.28;99593.27;272390;1269;22407;-91
2024/03/19 10:52:34;;;;;;;;;;;;;;;;;;;;;
2024/03/19 10:58:55;;;;;;;4.90;3.60;;;;;;;10.56;57.17;99600.50;272822;1269;22304;-91
2024/03/19 11:06:28;;;;;;;7.00;4.50;;;;;;;9.94;57.05;99594.45;272770;1269;22483;-91
2024/03/19 11:13:31;;;;;;;;;;;;;;;;;;;;;
2024/03/19 11:21:24;;;;;;;;;;;;;;;;;;;;;
2024/03/19 11:27:15;;;;;;;6.80;4.10;;;;;;;10.88;54.99;99602.02;272339;1269;23357;-90
2024/03/19 11:34:07;;;;;;;;;;;;;;;10.63;55.21;99597.08;272990;1269;22489;-92
2024/03/19 11:40:40;;;;;;;5.60;3.40;;;;;;;11.24;55.07;99592.29;272904;1269;22556;-92
2024/03/19 11:47:19;;;;;;;6.80;3.40;;;;;;;11.52;53.10;99586.91;272387;1269;22313;-91
2024/03/19 11:54:28;;;;;;;;;;;;;;;;;;;;;
2024/03/19 12:01:52;;;;;;;5.50;3.70;;;;;;;11.56;51.19;99577.75;272979;1269;22271;-91
2024/03/19 12:08:29;;;;;;;4.10;3.20;;;;;;;11.20;50.50;99579.63;272147;1269;22557;-92
2024/03/19 12:15:11;;;;;;;5.50;3.80;;;;;;;10.98;50.92;99578.84;272938;1269;22453;-92
2024/03/19 12:22:43;;;;;;;5.60;3.40;;;;;;;10.44;50.13;99579.48;272559;1268;22437;-90
2024/03/19 12:29:55;;;;;;;5.60;3.50;;;;;;;10.13;50.28;99574.35;272541;1269;22343;-91
2024/03/19 12:43:59;;;;;;;4.50;3.50;;;;;;;10.03;49.97;99561.84;265384;1269;22525;-91
2024/03/19 12:50:28;;;;;;;4.80;3.60;;;;;;;9.89;49.88;99554.55;273119;1269;22251;-92
2024/03/19 12:57:04;;;;;;;4.40;3.10;;;;;;;9.82;49.92;99551.75;272880;1261;22439;-91
2024/03/19 13:03:10;;;;;;;4.90;3.20;;;;;;;9.83;48.75;99547.71;272978;1269;22299;-91
2024/03/19 13:10:36;;;;;;;;;;;;;;;;;;;;;
2024/03/19 13:17:11;;;;;;;;;;;;;;;;;;;;;
2024/03/19 13:23:49;;;;;;;6.10;3.40;;;;;;;9.67;48.10;99540.94;272902;1269;22350;-90
2024/03/19 13:30:44;;;;;;;;;;;;;;;;;;;;;
2024/03/19 13:37:12;;;;;;;5.40;3.50;;;;;;;9.53;48.50;99524.37;273315;1269;22240;-91
2024/03/19 13:43:47;;;;;;;7.50;3.80;;;;;;;9.68;48.49;99524.70;272980;1269;23274;-91
2024/03/19 13:50:22;;;;;;;6.70;3.40;;;;;;;9.76;48.72;99528.27;272502;1269;23877;-91
2024/03/19 13:57:20;;;;;;;6.50;4.20;;;;;;;9.68;48.46;99515.89;273133;1269;22251;-91
2024/03/19 14:03:52;;;;;;;5.20;3.40;;;;;;;9.64;49.02;99511.02;272928;1269;22276;-91
2024/03/19 14:11:00;;;;;;;5.80;3.50;;;;;;;9.60;48.70;99514.38;272423;1269;22631;-89
2024/03/19 14:17:48;;;;;;;5.90;3.70;;;;;;;9.55;48.77;99512.14;272352;1269;23103;-91
2024/03/19 14:24:44;;;;;;;;;;;;;;;;;;;;;
2024/03/19 14:31:34;;;;;;;5.20;3.30;;;;;;;9.90;48.23;99517.94;272235;1269;22421;-91
2024/03/19 14:38:07;;;;;;;10.90;6.30;;;;;;;9.85;48.28;99521.11;272957;1263;23420;-91
2024/03/19 14:45:02;;;;;;;;;;;;;;;;;;;;;
2024/03/19 14:51:38;;;;;;;7.60;5.20;;;;;;;9.75;48.88;99524.63;272511;1269;23855;-92
2024/03/19 14:58:40;;;;;;;9.60;5.50;;;;;;;9.49;48.93;99524.34;272776;1269;23840;-91
2024/03/19 15:05:25;;;;;;;7.80;5.20;;;;;;;9.31;49.27;99524.38;272693;1269;22827;-91
2024/03/19 15:11:50;;;;;;;10.80;6.50;;;;;;;9.20;49.99;99519.34;272308;1269;23433;-91
2024/03/19 15:18:44;;;;;;;10.00;6.20;;;;;;;8.96;49.94;99516.80;272078;1269;22364;-91
2024/03/19 15:24:59;;;;;;;11.80;7.10;;;;;;;8.67;50.40;99512.28;273014;1260;23491;-91
2024/03/19 15:32:19;;;;;;;9.20;6.50;;;;;;;8.50;50.94;99517.89;272779;1269;23410;-90
2024/03/19 15:39:05;;;;;;;9.60;6.10;;;;;;;8.35;50.98;99528.70;272978;1269;23649;-91
2024/03/19 15:46:29;;;;;;;;;;;;;;;;;;;;;
2024/03/19 15:53:35;;;;;;;;;;;;;;;8.02;51.90;99540.23;271924;1269;22520;-91
2024/03/19 16:01:03;;;;;;;14.20;6.20;;;;;;;7.86;52.02;99547.80;273134;1269;22462;-90
2024/03/19 16:07:42;;;;;;;11.20;7.00;;;;;;;7.68;52.08;99552.94;273018;1269;22386;-90
2024/03/19 16:14:12;;;;;;;14.60;6.50;;;;;;;7.49;52.33;99560.41;271778;1269;22333;-91
2024/03/19 16:20:22;;;;;;;10.20;6.40;;;;;;;7.34;52.69;99561.31;272230;1269;22308;-92
2024/03/19 16:27:00;;;;;;;12.80;6.80;;;;;;;7.18;53.10;99563.91;272968;1269;22252;-91
2024/03/19 16:33:07;;;;;;;11.30;5.90;;;;;;;6.98;54.09;99567.48;270517;1269;23733;-91
2024/03/19 16:39:12;;;;;;;10.40;5.90;;;;;;;6.80;54.41;99571.90;270840;1269;22529;-92
2024/03/19 16:45:22;;;;;;;14.10;7.00;;;;;;;6.66;54.47;99580.34;270901;1269;23464;-90
2024/03/19 16:51:26;;;;;;;;;;;;;;;6.50;54.52;99585.21;271221;1269;22502;-90
2024/03/19 16:57:30;;;;;;;16.60;8.80;;;;;;;6.28;54.67;99594.06;270470;1269;23495;-90
2024/03/19 17:03:57;;;;;;;18.10;8.90;;;;;;;6.11;54.67;99603.59;272896;1269;22858;-89
2024/03/19 17:10:11;;;;;;;16.90;10.10;;;;;;;5.94;55.66;99612.48;272659;1269;23318;-91
2024/03/19 17:16:18;;;;;;;17.90;9.30;;;;;;;5.76;56.40;99622.54;271820;1253;22384;-90
2024/03/19 17:22:23;;;;;;;18.30;10.00;;;;;;;5.52;56.94;99627.12;270756;1269;23119;-90
2024/03/19 17:28:34;;;;;;;16.00;8.00;;;;;;;5.26;57.68;99632.64;270313;1269;23388;-89
2024/03/19 17:34:47;;;;;;;22.80;10.70;;;;;;;5.08;58.64;99636.27;270709;1269;23785;-91
2024/03/19 17:40:52;;;;;;;25.60;10.70;;;;;;;4.82;59.26;99642.77;272805;1269;23202;-91
2024/03/19 17:46:57;;;;;;;24.80;12.90;;;;;;;4.55;60.14;99646.68;272748;1269;22323;-91
2024/03/19 17:53:03;;;;;;;33.40;13.90;;;;;;;4.33;61.12;99664.34;272623;1269;22462;-91
2024/03/19 17:59:11;;;;;;;30.20;14.10;;;;;;;4.13;61.81;99667.35;272675;1269;22540;-90
2024/03/19 18:05:22;;;;;;;38.00;14.90;;;;;;;3.92;62.43;99673.00;272794;1269;22697;-91
2024/03/19 18:11:35;;;;;;;27.80;13.30;;;;;;;3.71;63.05;99676.38;272910;1269;23504;-91
2024/03/19 18:17:38;;;;;;;34.80;16.60;;;;;;;3.49;63.79;99680.02;272220;1269;22398;-91
2024/03/19 18:23:44;;;;;;;;;;;;;;;3.32;64.84;99684.55;272942;1269;22441;-91
2024/03/19 18:29:47;;;;;;;24.80;11.60;;;;;;;3.12;65.60;99693.39;271654;1269;22559;-91
2024/03/19 18:35:49;;;;;;;31.20;14.90;;;;;;;2.98;66.60;99700.06;272684;1269;22353;-91
2024/03/19 18:41:51;;;;;;;30.20;15.70;;;;;;;2.88;67.23;99705.08;272933;1269;22276;-90
2024/03/19 18:48:04;;;;;;;38.00;16.40;;;;;;;2.69;67.78;99707.33;272670;1269;22769;-91
2024/03/19 18:54:08;;;;;;;30.80;16.40;;;;;;;2.47;68.43;99713.96;272648;1269;23561;-91
2024/03/19 19:00:10;;;;;;;41.80;19.70;;;;;;;2.29;68.81;99720.98;272700;1253;23163;-92
2024/03/19 19:06:14;;;;;;;50.40;23.90;;;;;;;2.12;69.46;99725.21;272705;1269;22290;-88
2024/03/19 19:12:26;;;;;;;70.90;34.10;;;;;;;1.98;70.13;99729.95;272873;1269;22241;-90
2024/03/19 19:18:29;;;;;;;62.30;31.10;;;;;;;1.88;70.90;99735.42;273037;1269;22249;-91
2024/03/19 19:24:48;;;;;;;;;;;;;;;;;;;;;
2024/03/19 19:31:17;;;;;;;72.10;33.00;;;;;;;1.61;72.29;99739.83;272159;1269;23610;-89
2024/03/19 19:37:22;;;;;;;67.10;30.20;;;;;;;1.45;72.71;99741.31;272958;1269;22508;-89
2024/03/19 19:43:32;;;;;;;63.10;27.50;;;;;;;1.25;73.06;99744.04;272488;1269;23085;-89
2024/03/19 19:49:37;;;;;;;56.80;23.50;;;;;;;1.14;73.86;99741.59;272257;1269;22642;-90
2024/03/19 19:55:44;;;;;;;53.60;24.80;;;;;;;1.13;74.76;99743.44;270384;1269;23217;-89
2024/03/19 20:01:46;;;;;;;43.70;21.00;;;;;;;1.03;74.61;99742.91;271165;1269;22548;-90
2024/03/19 20:07:49;;;;;;;57.20;23.60;;;;;;;0.82;74.64;99744.14;270859;1269;22431;-89
2024/03/19 20:13:52;;;;;;;67.80;29.30;;;;;;;0.67;75.77;99745.30;272628;1269;22423;-89
2024/03/19 20:19:54;;;;;;;66.30;30.90;;;;;;;0.59;76.32;99748.83;271039;1269;25338;-89
2024/03/19 20:25:59;;;;;;;56.70;25.10;;;;;;;0.46;76.57;99751.48;270703;1269;22513;-88
2024/03/19 20:32:01;;;;;;;67.70;30.90;;;;;;;0.31;76.92;99747.33;271911;1268;24362;-89
2024/03/19 20:38:06;;;;;;;69.70;30.00;;;;;;;0.19;77.35;99749.79;272486;1269;22630;-89
2024/03/19 20:44:09;;;;;;;68.40;29.00;;;;;;;0.12;77.73;99750.36;272441;1269;22327;-88
2024/03/19 20:50:12;;;;;;;70.90;30.50;;;;;;;0.05;78.30;99752.34;271483;1269;25050;-88
2024/03/19 20:56:13;;;;;;;63.50;28.80;;;;;;;0.00;79.21;99757.58;270732;1267;24299;-88
2024/03/19 21:02:16;;;;;;;77.80;35.40;;;;;;;-0.10;79.34;99755.26;271943;1269;22430;-88
2024/03/19 21:08:18;;;;;;;86.40;36.20;;;;;;;-0.20;79.61;99754.19;272365;1269;22241;-88
2024/03/19 21:14:20;;;;;;;80.70;35.40;;;;;;;-0.29;80.12;99756.23;272337;1269;23886;-88
2024/03/19 21:20:23;;;;;;;59.40;27.10;;;;;;;-0.35;80.71;99758.23;272653;1269;23043;-87
2024/03/19 21:26:24;;;;;;;80.30;34.40;;;;;;;-0.37;81.36;99752.66;272629;1269;22550;-88
2024/03/19 21:32:26;;;;;;;69.60;31.90;;;;;;;-0.45;81.40;99751.61;271135;1269;22589;-89
2024/03/19 21:38:29;;;;;;;82.20;31.70;;;;;;;-0.58;81.84;99749.16;271801;1268;22318;-88
2024/03/19 21:44:31;;;;;;;72.90;33.30;;;;;;;-0.67;82.17;99749.89;272625;1269;22344;-88
2024/03/19 21:50:33;;;;;;;65.40;31.30;;;;;;;-0.71;82.58;99756.48;272762;1269;23402;-88
2024/03/19 21:56:35;;;;;;;65.60;27.90;;;;;;;-0.69;83.13;99750.33;272604;1269;22428;-88
2024/03/19 22:02:39;;;;;;;66.50;31.80;;;;;;;-0.68;83.77;99746.40;272492;1262;22889;-88
2024/03/19 22:08:41;;;;;;;77.50;35.60;;;;;;;-0.77;83.60;99741.55;272657;1257;23392;-89
2024/03/19 22:14:46;;;;;;;71.70;31.70;;;;;;;-0.84;83.93;99744.55;271554;1269;23437;-89
2024/03/19 22:20:49;;;;;;;77.00;35.60;;;;;;;-0.88;84.32;99739.60;272626;1269;22669;-89
2024/03/19 22:26:51;;;;;;;71.10;34.90;;;;;;;-0.97;84.29;99737.27;272615;1269;23060;-89
2024/03/19 22:32:53;;;;;;;70.00;33.20;;;;;;;-1.06;84.67;99742.54;271264;1269;23488;-89
2024/03/19 22:39:08;;;;;;;65.10;31.30;;;;;;;-1.13;85.12;99743.23;272897;1269;22408;-89
2024/03/19 22:45:10;;;;;;;63.80;29.80;;;;;;;-1.16;85.53;99744.56;272979;1269;22308;-89
2024/03/19 22:51:13;;;;;;;71.80;34.20;;;;;;;-1.20;85.65;99739.48;272898;1269;22450;-88
2024/03/19 22:57:15;;;;;;;75.50;35.70;;;;;;;-1.25;86.07;99737.59;272615;1269;22372;-87
2024/03/19 23:03:17;;;;;;;61.60;29.50;;;;;;;-1.26;86.77;99745.71;272781;1269;23623;-87
2024/03/19 23:09:19;;;;;;;73.60;34.10;;;;;;;-1.27;86.96;99745.55;272311;1269;22458;-89
2024/03/19 23:15:21;;;;;;;80.50;34.30;;;;;;;-1.30;87.15;99745.40;270984;1269;22568;-87
2024/03/19 23:21:25;;;;;;;67.20;34.10;;;;;;;-1.36;86.91;99743.27;272003;1269;22257;-87
2024/03/19 23:27:48;;;;;;;73.20;34.50;;;;;;;-1.49;87.05;99746.60;272395;1269;22238;-87
2024/03/19 23:33:51;;;;;;;62.40;30.20;;;;;;;-1.54;87.72;99745.95;273736;1269;22954;-87
2024/03/19 23:40:33;;;;;;;67.20;30.70;;;;;;;-1.55;87.84;99746.70;273688;1269;22243;-86
2024/03/19 23:47:00;;;;;;;69.20;32.00;;;;;;;-1.55;88.50;99741.27;273738;1269;22249;-86
